sensor_id;sensor_type;location;lat;lon;timestamp;P1;durP1;ratioP1;P2;durP2;ratioP2
22843;SDS011;11588;51.178;4.852;2023-12-20T00:00:59;14.05;;;3.38;;
22843;SDS011;11588;51.178;4.852;2023-12-20T00:03:26;14.82;;;3.33;;
22843;SDS011;11588;51.178;4.852;2023-12-20T00:05:53;17.33;;;3.42;;
22843;SDS011;11588;51.178;4.852;2023-12-20T00:08:19;12.43;;;3.10;;
22843;SDS011;11588;51.178;4.852;2023-12-20T00:10:46;13.15;;;2.83;;
22843;SDS011;11588;51.178;4.852;2023-12-20T00:13:13;16.73;;;4.07;;
22843;SDS011;11588;51.178;4.852;2023-12-20T00:15:39;12.63;;;3.33;;
22843;SDS011;11588;51.178;4.852;2023-12-20T00:18:06;17.58;;;3.33;;
22843;SDS011;11588;51.178;4.852;2023-12-20T00:20:33;17.25;;;2.75;;
22843;SDS011;11588;51.178;4.852;2023-12-20T00:22:59;15.50;;;3.08;;
22843;SDS011;11588;51.178;4.852;2023-12-20T00:25:26;18.90;;;3.05;;
22843;SDS011;11588;51.178;4.852;2023-12-20T00:27:53;17.38;;;3.35;;
22843;SDS011;11588;51.178;4.852;2023-12-20T00:30:19;18.67;;;4.18;;
22843;SDS011;11588;51.178;4.852;2023-12-20T00:32:46;21.77;;;3.72;;
22843;SDS011;11588;51.178;4.852;2023-12-20T00:35:13;16.23;;;3.33;;
22843;SDS011;11588;51.178;4.852;2023-12-20T00:37:40;14.45;;;3.22;;
22843;SDS011;11588;51.178;4.852;2023-12-20T00:40:09;14.32;;;3.38;;
22843;SDS011;11588;51.178;4.852;2023-12-20T00:42:36;22.35;;;5.07;;
22843;SDS011;11588;51.178;4.852;2023-12-20T00:45:03;17.10;;;3.58;;
22843;SDS011;11588;51.178;4.852;2023-12-20T00:47:31;23.42;;;3.80;;
22843;SDS011;11588;51.178;4.852;2023-12-20T00:49:57;16.20;;;3.22;;
22843;SDS011;11588;51.178;4.852;2023-12-20T00:52:26;19.40;;;3.53;;
22843;SDS011;11588;51.178;4.852;2023-12-20T00:54:52;16.38;;;3.28;;
22843;SDS011;11588;51.178;4.852;2023-12-20T00:57:19;18.02;;;3.47;;
22843;SDS011;11588;51.178;4.852;2023-12-20T00:59:46;20.08;;;4.15;;
22843;SDS011;11588;51.178;4.852;2023-12-20T01:02:12;18.33;;;3.70;;
22843;SDS011;11588;51.178;4.852;2023-12-20T01:04:39;15.88;;;3.38;;
22843;SDS011;11588;51.178;4.852;2023-12-20T01:07:05;21.45;;;3.53;;
22843;SDS011;11588;51.178;4.852;2023-12-20T01:09:32;17.00;;;4.07;;
22843;SDS011;11588;51.178;4.852;2023-12-20T01:12:02;17.17;;;4.05;;
22843;SDS011;11588;51.178;4.852;2023-12-20T01:14:29;11.02;;;3.60;;
22843;SDS011;11588;51.178;4.852;2023-12-20T01:16:55;16.50;;;4.07;;
22843;SDS011;11588;51.178;4.852;2023-12-20T01:19:22;18.15;;;4.20;;
22843;SDS011;11588;51.178;4.852;2023-12-20T01:21:50;22.80;;;3.80;;
22843;SDS011;11588;51.178;4.852;2023-12-20T01:24:17;14.73;;;3.63;;
22843;SDS011;11588;51.178;4.852;2023-12-20T01:26:43;21.75;;;3.75;;
22843;SDS011;11588;51.178;4.852;2023-12-20T01:29:10;23.67;;;4.88;;
22843;SDS011;11588;51.178;4.852;2023-12-20T01:31:37;18.70;;;4.60;;
22843;SDS011;11588;51.178;4.852;2023-12-20T01:34:04;18.80;;;3.97;;
22843;SDS011;11588;51.178;4.852;2023-12-20T01:36:30;17.27;;;4.25;;
22843;SDS011;11588;51.178;4.852;2023-12-20T01:38:57;18.10;;;3.53;;
22843;SDS011;11588;51.178;4.852;2023-12-20T01:41:24;21.23;;;4.20;;
22843;SDS011;11588;51.178;4.852;2023-12-20T01:43:51;21.25;;;4.38;;
22843;SDS011;11588;51.178;4.852;2023-12-20T01:46:20;17.20;;;3.97;;
22843;SDS011;11588;51.178;4.852;2023-12-20T01:48:47;17.02;;;3.47;;
22843;SDS011;11588;51.178;4.852;2023-12-20T01:51:14;15.63;;;4.00;;
22843;SDS011;11588;51.178;4.852;2023-12-20T01:53:41;14.50;;;4.07;;
22843;SDS011;11588;51.178;4.852;2023-12-20T01:56:08;23.40;;;4.28;;
22843;SDS011;11588;51.178;4.852;2023-12-20T01:58:37;21.83;;;5.00;;
22843;SDS011;11588;51.178;4.852;2023-12-20T02:01:07;20.35;;;3.80;;
22843;SDS011;11588;51.178;4.852;2023-12-20T02:03:35;20.83;;;4.18;;
22843;SDS011;11588;51.178;4.852;2023-12-20T02:06:03;21.27;;;4.00;;
22843;SDS011;11588;51.178;4.852;2023-12-20T02:08:31;23.45;;;4.60;;
22843;SDS011;11588;51.178;4.852;2023-12-20T02:11:00;23.05;;;3.83;;
22843;SDS011;11588;51.178;4.852;2023-12-20T02:13:26;18.92;;;3.80;;
22843;SDS011;11588;51.178;4.852;2023-12-20T02:15:54;19.98;;;4.15;;
22843;SDS011;11588;51.178;4.852;2023-12-20T02:18:21;21.90;;;4.72;;
22843;SDS011;11588;51.178;4.852;2023-12-20T02:20:48;18.30;;;3.65;;
22843;SDS011;11588;51.178;4.852;2023-12-20T02:23:14;17.75;;;3.60;;
22843;SDS011;11588;51.178;4.852;2023-12-20T02:25:41;16.17;;;3.80;;
22843;SDS011;11588;51.178;4.852;2023-12-20T02:28:08;21.90;;;4.40;;
22843;SDS011;11588;51.178;4.852;2023-12-20T02:30:35;19.40;;;3.83;;
22843;SDS011;11588;51.178;4.852;2023-12-20T02:33:02;19.95;;;3.33;;
22843;SDS011;11588;51.178;4.852;2023-12-20T02:35:30;20.95;;;3.88;;
22843;SDS011;11588;51.178;4.852;2023-12-20T02:37:57;16.00;;;4.80;;
22843;SDS011;11588;51.178;4.852;2023-12-20T02:40:24;23.35;;;5.13;;
22843;SDS011;11588;51.178;4.852;2023-12-20T02:42:50;28.23;;;5.97;;
22843;SDS011;11588;51.178;4.852;2023-12-20T02:45:17;23.13;;;5.95;;
22843;SDS011;11588;51.178;4.852;2023-12-20T02:47:43;24.45;;;6.05;;
22843;SDS011;11588;51.178;4.852;2023-12-20T02:50:10;20.45;;;6.05;;
22843;SDS011;11588;51.178;4.852;2023-12-20T02:52:37;22.45;;;6.82;;
22843;SDS011;11588;51.178;4.852;2023-12-20T02:55:03;22.42;;;6.25;;
22843;SDS011;11588;51.178;4.852;2023-12-20T02:57:30;35.20;;;7.00;;
22843;SDS011;11588;51.178;4.852;2023-12-20T02:59:57;22.42;;;5.70;;
22843;SDS011;11588;51.178;4.852;2023-12-20T03:02:23;23.58;;;6.60;;
22843;SDS011;11588;51.178;4.852;2023-12-20T03:04:50;20.42;;;5.75;;
22843;SDS011;11588;51.178;4.852;2023-12-20T03:07:17;14.98;;;6.45;;
22843;SDS011;11588;51.178;4.852;2023-12-20T03:09:43;26.00;;;6.10;;
22843;SDS011;11588;51.178;4.852;2023-12-20T03:12:10;17.65;;;5.45;;
22843;SDS011;11588;51.178;4.852;2023-12-20T03:14:39;23.70;;;5.43;;
22843;SDS011;11588;51.178;4.852;2023-12-20T03:17:06;19.90;;;5.30;;
22843;SDS011;11588;51.178;4.852;2023-12-20T03:19:32;21.10;;;5.35;;
22843;SDS011;11588;51.178;4.852;2023-12-20T03:21:59;24.23;;;5.50;;
22843;SDS011;11588;51.178;4.852;2023-12-20T03:24:26;17.08;;;5.32;;
22843;SDS011;11588;51.178;4.852;2023-12-20T03:26:51;20.83;;;5.57;;
22843;SDS011;11588;51.178;4.852;2023-12-20T03:29:18;19.02;;;4.75;;
22843;SDS011;11588;51.178;4.852;2023-12-20T03:31:44;24.42;;;4.82;;
22843;SDS011;11588;51.178;4.852;2023-12-20T03:34:12;25.85;;;5.32;;
22843;SDS011;11588;51.178;4.852;2023-12-20T03:36:38;24.48;;;5.03;;
22843;SDS011;11588;51.178;4.852;2023-12-20T03:39:05;24.85;;;5.47;;
22843;SDS011;11588;51.178;4.852;2023-12-20T03:41:32;19.05;;;4.63;;
22843;SDS011;11588;51.178;4.852;2023-12-20T03:43:58;20.38;;;4.40;;
22843;SDS011;11588;51.178;4.852;2023-12-20T03:46:25;20.90;;;5.78;;
22843;SDS011;11588;51.178;4.852;2023-12-20T03:48:52;28.38;;;5.25;;
22843;SDS011;11588;51.178;4.852;2023-12-20T03:51:18;26.77;;;5.47;;
22843;SDS011;11588;51.178;4.852;2023-12-20T03:53:45;29.13;;;5.35;;
22843;SDS011;11588;51.178;4.852;2023-12-20T03:56:12;20.08;;;5.20;;
22843;SDS011;11588;51.178;4.852;2023-12-20T03:58:38;18.40;;;4.93;;
22843;SDS011;11588;51.178;4.852;2023-12-20T04:01:10;19.95;;;4.78;;
22843;SDS011;11588;51.178;4.852;2023-12-20T04:03:38;16.25;;;4.65;;
22843;SDS011;11588;51.178;4.852;2023-12-20T04:06:05;21.83;;;4.93;;
22843;SDS011;11588;51.178;4.852;2023-12-20T04:08:32;25.17;;;5.43;;
22843;SDS011;11588;51.178;4.852;2023-12-20T04:10:59;22.65;;;4.60;;
22843;SDS011;11588;51.178;4.852;2023-12-20T04:13:25;22.63;;;4.57;;
22843;SDS011;11588;51.178;4.852;2023-12-20T04:15:52;18.67;;;5.25;;
22843;SDS011;11588;51.178;4.852;2023-12-20T04:18:22;18.38;;;4.25;;
22843;SDS011;11588;51.178;4.852;2023-12-20T04:20:48;27.77;;;4.97;;
22843;SDS011;11588;51.178;4.852;2023-12-20T04:23:16;21.77;;;4.90;;
22843;SDS011;11588;51.178;4.852;2023-12-20T04:25:42;23.50;;;4.70;;
22843;SDS011;11588;51.178;4.852;2023-12-20T04:28:09;29.30;;;5.43;;
22843;SDS011;11588;51.178;4.852;2023-12-20T04:30:36;27.50;;;4.43;;
22843;SDS011;11588;51.178;4.852;2023-12-20T04:33:02;22.88;;;4.72;;
22843;SDS011;11588;51.178;4.852;2023-12-20T04:35:29;28.20;;;5.07;;
22843;SDS011;11588;51.178;4.852;2023-12-20T04:37:56;21.80;;;4.97;;
22843;SDS011;11588;51.178;4.852;2023-12-20T04:40:22;26.55;;;4.60;;
22843;SDS011;11588;51.178;4.852;2023-12-20T04:42:49;20.17;;;4.13;;
22843;SDS011;11588;51.178;4.852;2023-12-20T04:45:16;26.52;;;4.75;;
22843;SDS011;11588;51.178;4.852;2023-12-20T04:47:43;25.02;;;5.07;;
22843;SDS011;11588;51.178;4.852;2023-12-20T04:50:10;24.13;;;4.97;;
22843;SDS011;11588;51.178;4.852;2023-12-20T04:52:39;21.95;;;4.60;;
22843;SDS011;11588;51.178;4.852;2023-12-20T04:55:06;28.05;;;5.45;;
22843;SDS011;11588;51.178;4.852;2023-12-20T04:57:33;26.25;;;4.97;;
22843;SDS011;11588;51.178;4.852;2023-12-20T04:59:59;23.85;;;4.90;;
22843;SDS011;11588;51.178;4.852;2023-12-20T05:02:26;27.70;;;5.25;;
22843;SDS011;11588;51.178;4.852;2023-12-20T05:04:53;17.85;;;4.53;;
22843;SDS011;11588;51.178;4.852;2023-12-20T05:07:19;20.52;;;4.65;;
22843;SDS011;11588;51.178;4.852;2023-12-20T05:09:46;22.48;;;5.28;;
22843;SDS011;11588;51.178;4.852;2023-12-20T05:12:13;21.05;;;4.75;;
22843;SDS011;11588;51.178;4.852;2023-12-20T05:14:40;23.48;;;4.95;;
22843;SDS011;11588;51.178;4.852;2023-12-20T05:17:09;24.27;;;4.93;;
22843;SDS011;11588;51.178;4.852;2023-12-20T05:19:36;18.33;;;4.90;;
22843;SDS011;11588;51.178;4.852;2023-12-20T05:22:03;23.65;;;4.47;;
22843;SDS011;11588;51.178;4.852;2023-12-20T05:24:29;22.05;;;4.70;;
22843;SDS011;11588;51.178;4.852;2023-12-20T05:26:56;18.85;;;4.57;;
22843;SDS011;11588;51.178;4.852;2023-12-20T05:29:23;23.05;;;5.32;;
22843;SDS011;11588;51.178;4.852;2023-12-20T05:31:49;25.50;;;4.82;;
22843;SDS011;11588;51.178;4.852;2023-12-20T05:34:16;21.67;;;4.35;;
22843;SDS011;11588;51.178;4.852;2023-12-20T05:36:43;26.02;;;4.15;;
22843;SDS011;11588;51.178;4.852;2023-12-20T05:39:09;20.00;;;4.50;;
22843;SDS011;11588;51.178;4.852;2023-12-20T05:41:36;20.45;;;4.55;;
22843;SDS011;11588;51.178;4.852;2023-12-20T05:44:03;24.70;;;5.05;;
22843;SDS011;11588;51.178;4.852;2023-12-20T05:46:30;24.27;;;4.47;;
22843;SDS011;11588;51.178;4.852;2023-12-20T05:48:56;24.80;;;4.38;;
22843;SDS011;11588;51.178;4.852;2023-12-20T05:51:23;22.83;;;4.15;;
22843;SDS011;11588;51.178;4.852;2023-12-20T05:53:50;16.65;;;3.80;;
22843;SDS011;11588;51.178;4.852;2023-12-20T05:56:16;25.30;;;4.80;;
22843;SDS011;11588;51.178;4.852;2023-12-20T05:58:43;19.58;;;3.88;;
22843;SDS011;11588;51.178;4.852;2023-12-20T06:01:10;21.05;;;4.53;;
22843;SDS011;11588;51.178;4.852;2023-12-20T06:03:36;21.13;;;4.32;;
22843;SDS011;11588;51.178;4.852;2023-12-20T06:06:06;23.50;;;4.93;;
22843;SDS011;11588;51.178;4.852;2023-12-20T06:08:33;19.92;;;4.25;;
22843;SDS011;11588;51.178;4.852;2023-12-20T06:11:00;20.35;;;4.95;;
22843;SDS011;11588;51.178;4.852;2023-12-20T06:13:27;22.50;;;4.30;;
22843;SDS011;11588;51.178;4.852;2023-12-20T06:15:54;21.67;;;4.18;;
22843;SDS011;11588;51.178;4.852;2023-12-20T06:18:22;23.40;;;4.22;;
22843;SDS011;11588;51.178;4.852;2023-12-20T06:20:48;16.20;;;4.38;;
22843;SDS011;11588;51.178;4.852;2023-12-20T06:23:15;17.10;;;4.40;;
22843;SDS011;11588;51.178;4.852;2023-12-20T06:25:42;20.63;;;4.38;;
22843;SDS011;11588;51.178;4.852;2023-12-20T06:28:07;26.85;;;5.40;;
22843;SDS011;11588;51.178;4.852;2023-12-20T06:30:36;17.95;;;4.05;;
22843;SDS011;11588;51.178;4.852;2023-12-20T06:33:03;18.52;;;3.90;;
22843;SDS011;11588;51.178;4.852;2023-12-20T06:35:30;21.52;;;4.25;;
22843;SDS011;11588;51.178;4.852;2023-12-20T06:37:56;19.40;;;3.38;;
22843;SDS011;11588;51.178;4.852;2023-12-20T06:40:23;20.30;;;4.20;;
22843;SDS011;11588;51.178;4.852;2023-12-20T06:42:50;24.60;;;4.18;;
22843;SDS011;11588;51.178;4.852;2023-12-20T06:45:16;19.50;;;4.43;;
22843;SDS011;11588;51.178;4.852;2023-12-20T06:47:43;22.73;;;4.50;;
22843;SDS011;11588;51.178;4.852;2023-12-20T06:50:10;19.92;;;4.43;;
22843;SDS011;11588;51.178;4.852;2023-12-20T06:52:37;20.85;;;4.43;;
22843;SDS011;11588;51.178;4.852;2023-12-20T06:55:04;16.33;;;4.43;;
22843;SDS011;11588;51.178;4.852;2023-12-20T06:57:30;19.52;;;3.65;;
22843;SDS011;11588;51.178;4.852;2023-12-20T06:59:57;20.80;;;3.60;;
22843;SDS011;11588;51.178;4.852;2023-12-20T07:02:24;22.35;;;3.65;;
22843;SDS011;11588;51.178;4.852;2023-12-20T07:04:50;23.90;;;3.60;;
22843;SDS011;11588;51.178;4.852;2023-12-20T07:07:17;21.35;;;3.70;;
22843;SDS011;11588;51.178;4.852;2023-12-20T07:09:43;19.85;;;4.05;;
22843;SDS011;11588;51.178;4.852;2023-12-20T07:12:10;18.73;;;3.95;;
22843;SDS011;11588;51.178;4.852;2023-12-20T07:14:37;19.17;;;4.20;;
22843;SDS011;11588;51.178;4.852;2023-12-20T07:17:04;20.05;;;4.13;;
22843;SDS011;11588;51.178;4.852;2023-12-20T07:19:31;22.88;;;3.70;;
22843;SDS011;11588;51.178;4.852;2023-12-20T07:21:58;20.02;;;3.53;;
22843;SDS011;11588;51.178;4.852;2023-12-20T07:24:25;20.58;;;3.83;;
22843;SDS011;11588;51.178;4.852;2023-12-20T07:26:52;23.33;;;3.83;;
22843;SDS011;11588;51.178;4.852;2023-12-20T07:29:18;17.65;;;3.25;;
22843;SDS011;11588;51.178;4.852;2023-12-20T07:31:45;17.00;;;2.83;;
22843;SDS011;11588;51.178;4.852;2023-12-20T07:34:12;18.15;;;4.00;;
22843;SDS011;11588;51.178;4.852;2023-12-20T07:36:38;20.77;;;4.20;;
22843;SDS011;11588;51.178;4.852;2023-12-20T07:39:04;19.25;;;3.70;;
22843;SDS011;11588;51.178;4.852;2023-12-20T07:41:31;24.02;;;4.20;;
22843;SDS011;11588;51.178;4.852;2023-12-20T07:43:58;27.55;;;3.92;;
22843;SDS011;11588;51.178;4.852;2023-12-20T07:46:25;16.35;;;3.10;;
22843;SDS011;11588;51.178;4.852;2023-12-20T07:48:52;15.82;;;3.05;;
22843;SDS011;11588;51.178;4.852;2023-12-20T07:51:18;22.80;;;4.40;;
22843;SDS011;11588;51.178;4.852;2023-12-20T07:53:47;17.90;;;3.03;;
22843;SDS011;11588;51.178;4.852;2023-12-20T07:56:17;22.38;;;4.03;;
22843;SDS011;11588;51.178;4.852;2023-12-20T07:58:44;17.98;;;3.70;;
22843;SDS011;11588;51.178;4.852;2023-12-20T08:01:11;19.73;;;4.13;;
22843;SDS011;11588;51.178;4.852;2023-12-20T08:03:38;20.85;;;3.80;;
22843;SDS011;11588;51.178;4.852;2023-12-20T08:06:05;16.15;;;3.40;;
22843;SDS011;11588;51.178;4.852;2023-12-20T08:08:31;24.63;;;4.03;;
22843;SDS011;11588;51.178;4.852;2023-12-20T08:10:58;14.88;;;3.25;;
22843;SDS011;11588;51.178;4.852;2023-12-20T08:13:26;19.90;;;3.58;;
22843;SDS011;11588;51.178;4.852;2023-12-20T08:15:53;20.52;;;2.97;;
22843;SDS011;11588;51.178;4.852;2023-12-20T08:18:20;19.55;;;3.20;;
22843;SDS011;11588;51.178;4.852;2023-12-20T08:20:47;20.33;;;3.08;;
22843;SDS011;11588;51.178;4.852;2023-12-20T08:23:15;11.45;;;3.05;;
22843;SDS011;11588;51.178;4.852;2023-12-20T08:25:41;18.67;;;3.78;;
22843;SDS011;11588;51.178;4.852;2023-12-20T08:28:08;15.20;;;3.40;;
22843;SDS011;11588;51.178;4.852;2023-12-20T08:30:34;17.00;;;3.28;;
22843;SDS011;11588;51.178;4.852;2023-12-20T08:33:02;15.52;;;3.58;;
22843;SDS011;11588;51.178;4.852;2023-12-20T08:35:29;22.65;;;3.20;;
22843;SDS011;11588;51.178;4.852;2023-12-20T08:37:55;20.50;;;3.25;;
22843;SDS011;11588;51.178;4.852;2023-12-20T08:40:22;18.20;;;3.33;;
22843;SDS011;11588;51.178;4.852;2023-12-20T08:42:49;20.45;;;3.92;;
22843;SDS011;11588;51.178;4.852;2023-12-20T08:45:16;23.63;;;3.67;;
22843;SDS011;11588;51.178;4.852;2023-12-20T08:47:43;21.65;;;3.90;;
22843;SDS011;11588;51.178;4.852;2023-12-20T08:50:11;15.43;;;3.80;;
22843;SDS011;11588;51.178;4.852;2023-12-20T08:52:38;18.92;;;3.67;;
22843;SDS011;11588;51.178;4.852;2023-12-20T08:55:05;22.50;;;3.25;;
22843;SDS011;11588;51.178;4.852;2023-12-20T08:57:32;19.95;;;4.05;;
22843;SDS011;11588;51.178;4.852;2023-12-20T08:59:59;15.60;;;2.85;;
22843;SDS011;11588;51.178;4.852;2023-12-20T09:02:26;20.58;;;3.92;;
22843;SDS011;11588;51.178;4.852;2023-12-20T09:04:53;19.63;;;3.72;;
22843;SDS011;11588;51.178;4.852;2023-12-20T09:07:21;20.58;;;4.65;;
22843;SDS011;11588;51.178;4.852;2023-12-20T09:09:48;16.75;;;4.05;;
22843;SDS011;11588;51.178;4.852;2023-12-20T09:12:14;19.63;;;3.17;;
22843;SDS011;11588;51.178;4.852;2023-12-20T09:14:40;22.73;;;4.22;;
22843;SDS011;11588;51.178;4.852;2023-12-20T09:17:09;19.35;;;4.15;;
22843;SDS011;11588;51.178;4.852;2023-12-20T09:19:38;17.97;;;3.67;;
22843;SDS011;11588;51.178;4.852;2023-12-20T09:22:05;19.83;;;3.95;;
22843;SDS011;11588;51.178;4.852;2023-12-20T09:24:32;20.55;;;3.75;;
22843;SDS011;11588;51.178;4.852;2023-12-20T09:26:59;19.52;;;3.53;;
22843;SDS011;11588;51.178;4.852;2023-12-20T09:29:26;17.10;;;3.80;;
22843;SDS011;11588;51.178;4.852;2023-12-20T09:31:51;17.08;;;4.00;;
22843;SDS011;11588;51.178;4.852;2023-12-20T09:34:17;14.30;;;3.55;;
22843;SDS011;11588;51.178;4.852;2023-12-20T09:36:43;17.80;;;4.10;;
22843;SDS011;11588;51.178;4.852;2023-12-20T09:39:13;17.23;;;3.88;;
22843;SDS011;11588;51.178;4.852;2023-12-20T09:41:43;16.30;;;3.58;;
22843;SDS011;11588;51.178;4.852;2023-12-20T09:44:12;18.90;;;4.00;;
22843;SDS011;11588;51.178;4.852;2023-12-20T09:46:42;16.15;;;3.67;;
22843;SDS011;11588;51.178;4.852;2023-12-20T09:49:10;16.77;;;4.07;;
22843;SDS011;11588;51.178;4.852;2023-12-20T09:51:36;16.27;;;3.47;;
22843;SDS011;11588;51.178;4.852;2023-12-20T09:54:05;15.50;;;3.70;;
22843;SDS011;11588;51.178;4.852;2023-12-20T09:56:32;18.27;;;3.58;;
22843;SDS011;11588;51.178;4.852;2023-12-20T09:58:59;21.38;;;3.35;;
22843;SDS011;11588;51.178;4.852;2023-12-20T10:01:26;20.73;;;4.03;;
22843;SDS011;11588;51.178;4.852;2023-12-20T10:03:54;18.17;;;4.40;;
22843;SDS011;11588;51.178;4.852;2023-12-20T10:06:23;14.35;;;3.58;;
22843;SDS011;11588;51.178;4.852;2023-12-20T10:08:50;19.45;;;4.10;;
22843;SDS011;11588;51.178;4.852;2023-12-20T10:11:16;23.90;;;4.32;;
22843;SDS011;11588;51.178;4.852;2023-12-20T10:13:43;15.35;;;4.10;;
22843;SDS011;11588;51.178;4.852;2023-12-20T10:16:10;22.23;;;4.10;;
22843;SDS011;11588;51.178;4.852;2023-12-20T10:18:37;19.25;;;3.97;;
22843;SDS011;11588;51.178;4.852;2023-12-20T10:21:04;20.52;;;4.28;;
22843;SDS011;11588;51.178;4.852;2023-12-20T10:23:31;25.30;;;5.07;;
22843;SDS011;11588;51.178;4.852;2023-12-20T10:25:58;15.43;;;3.75;;
22843;SDS011;11588;51.178;4.852;2023-12-20T10:28:25;13.73;;;3.30;;
22843;SDS011;11588;51.178;4.852;2023-12-20T10:30:54;20.20;;;3.55;;
22843;SDS011;11588;51.178;4.852;2023-12-20T10:33:24;21.88;;;3.75;;
22843;SDS011;11588;51.178;4.852;2023-12-20T10:35:51;14.88;;;3.38;;
22843;SDS011;11588;51.178;4.852;2023-12-20T10:38:18;18.85;;;3.67;;
22843;SDS011;11588;51.178;4.852;2023-12-20T10:40:45;16.70;;;3.53;;
22843;SDS011;11588;51.178;4.852;2023-12-20T10:43:12;17.75;;;4.75;;
22843;SDS011;11588;51.178;4.852;2023-12-20T10:45:40;17.30;;;3.50;;
22843;SDS011;11588;51.178;4.852;2023-12-20T10:48:07;14.13;;;3.20;;
22843;SDS011;11588;51.178;4.852;2023-12-20T10:50:37;15.90;;;3.60;;
22843;SDS011;11588;51.178;4.852;2023-12-20T10:53:05;14.07;;;3.08;;
22843;SDS011;11588;51.178;4.852;2023-12-20T10:55:32;17.80;;;3.70;;
22843;SDS011;11588;51.178;4.852;2023-12-20T10:58:01;18.42;;;3.47;;
22843;SDS011;11588;51.178;4.852;2023-12-20T11:00:29;16.05;;;3.55;;
22843;SDS011;11588;51.178;4.852;2023-12-20T11:02:56;13.90;;;3.25;;
22843;SDS011;11588;51.178;4.852;2023-12-20T11:05:32;13.13;;;3.95;;
22843;SDS011;11588;51.178;4.852;2023-12-20T11:08:09;16.60;;;3.45;;
22843;SDS011;11588;51.178;4.852;2023-12-20T11:10:43;16.08;;;3.50;;
22843;SDS011;11588;51.178;4.852;2023-12-20T11:13:16;12.63;;;3.60;;
22843;SDS011;11588;51.178;4.852;2023-12-20T11:15:46;16.75;;;4.38;;
22843;SDS011;11588;51.178;4.852;2023-12-20T11:18:13;19.25;;;3.35;;
22843;SDS011;11588;51.178;4.852;2023-12-20T11:20:41;16.10;;;3.60;;
22843;SDS011;11588;51.178;4.852;2023-12-20T11:23:08;18.08;;;4.70;;
22843;SDS011;11588;51.178;4.852;2023-12-20T11:28:12;11.73;;;3.83;;
22843;SDS011;11588;51.178;4.852;2023-12-20T11:30:42;21.55;;;3.88;;
22843;SDS011;11588;51.178;4.852;2023-12-20T11:33:12;20.00;;;4.03;;
22843;SDS011;11588;51.178;4.852;2023-12-20T11:35:39;19.02;;;4.05;;
22843;SDS011;11588;51.178;4.852;2023-12-20T11:38:08;20.63;;;3.85;;
22843;SDS011;11588;51.178;4.852;2023-12-20T11:40:35;20.10;;;4.55;;
22843;SDS011;11588;51.178;4.852;2023-12-20T11:43:02;21.33;;;4.50;;
22843;SDS011;11588;51.178;4.852;2023-12-20T11:45:29;22.60;;;4.10;;
22843;SDS011;11588;51.178;4.852;2023-12-20T11:47:57;23.33;;;4.47;;
22843;SDS011;11588;51.178;4.852;2023-12-20T11:50:23;25.35;;;4.43;;
22843;SDS011;11588;51.178;4.852;2023-12-20T11:52:51;23.88;;;4.85;;
22843;SDS011;11588;51.178;4.852;2023-12-20T11:55:17;20.15;;;5.45;;
22843;SDS011;11588;51.178;4.852;2023-12-20T11:57:44;22.33;;;4.32;;
22843;SDS011;11588;51.178;4.852;2023-12-20T12:00:10;16.90;;;3.92;;
22843;SDS011;11588;51.178;4.852;2023-12-20T12:02:43;20.15;;;5.65;;
22843;SDS011;11588;51.178;4.852;2023-12-20T12:05:11;22.33;;;4.50;;
22843;SDS011;11588;51.178;4.852;2023-12-20T12:07:40;23.85;;;5.60;;
22843;SDS011;11588;51.178;4.852;2023-12-20T12:10:06;17.25;;;4.15;;
22843;SDS011;11588;51.178;4.852;2023-12-20T12:12:34;21.33;;;5.25;;
22843;SDS011;11588;51.178;4.852;2023-12-20T12:15:01;19.52;;;4.43;;
22843;SDS011;11588;51.178;4.852;2023-12-20T12:17:29;16.90;;;4.03;;
22843;SDS011;11588;51.178;4.852;2023-12-20T12:22:31;23.92;;;4.18;;
22843;SDS011;11588;51.178;4.852;2023-12-20T12:24:59;20.95;;;4.47;;
22843;SDS011;11588;51.178;4.852;2023-12-20T12:27:27;24.45;;;4.97;;
22843;SDS011;11588;51.178;4.852;2023-12-20T12:32:30;17.25;;;4.60;;
22843;SDS011;11588;51.178;4.852;2023-12-20T12:34:56;17.15;;;4.40;;
22843;SDS011;11588;51.178;4.852;2023-12-20T12:37:29;12.68;;;3.67;;
22843;SDS011;11588;51.178;4.852;2023-12-20T12:39:57;30.20;;;4.53;;
22843;SDS011;11588;51.178;4.852;2023-12-20T12:42:24;21.83;;;4.68;;
22843;SDS011;11588;51.178;4.852;2023-12-20T12:44:58;20.73;;;4.85;;
22843;SDS011;11588;51.178;4.852;2023-12-20T12:47:24;17.48;;;4.13;;
22843;SDS011;11588;51.178;4.852;2023-12-20T12:49:52;23.33;;;4.25;;
22843;SDS011;11588;51.178;4.852;2023-12-20T12:52:18;19.83;;;4.70;;
22843;SDS011;11588;51.178;4.852;2023-12-20T12:54:45;19.45;;;4.97;;
22843;SDS011;11588;51.178;4.852;2023-12-20T12:57:11;16.38;;;4.25;;
22843;SDS011;11588;51.178;4.852;2023-12-20T12:59:38;15.77;;;4.70;;
22843;SDS011;11588;51.178;4.852;2023-12-20T13:02:05;19.25;;;5.00;;
22843;SDS011;11588;51.178;4.852;2023-12-20T13:04:34;19.83;;;3.78;;
22843;SDS011;11588;51.178;4.852;2023-12-20T13:07:02;23.63;;;5.10;;
22843;SDS011;11588;51.178;4.852;2023-12-20T13:09:29;15.60;;;3.28;;
22843;SDS011;11588;51.178;4.852;2023-12-20T13:11:56;19.90;;;3.38;;
22843;SDS011;11588;51.178;4.852;2023-12-20T13:14:27;18.83;;;4.13;;
22843;SDS011;11588;51.178;4.852;2023-12-20T13:16:54;16.30;;;4.30;;
22843;SDS011;11588;51.178;4.852;2023-12-20T13:19:21;23.88;;;4.30;;
22843;SDS011;11588;51.178;4.852;2023-12-20T13:21:48;12.95;;;3.42;;
22843;SDS011;11588;51.178;4.852;2023-12-20T13:24:16;22.60;;;3.53;;
22843;SDS011;11588;51.178;4.852;2023-12-20T13:26:42;17.52;;;4.05;;
22843;SDS011;11588;51.178;4.852;2023-12-20T13:29:09;22.33;;;3.92;;
22843;SDS011;11588;51.178;4.852;2023-12-20T13:31:36;17.27;;;3.72;;
22843;SDS011;11588;51.178;4.852;2023-12-20T13:34:03;18.58;;;3.38;;
22843;SDS011;11588;51.178;4.852;2023-12-20T13:36:30;21.58;;;4.00;;
22843;SDS011;11588;51.178;4.852;2023-12-20T13:38:58;16.08;;;3.47;;
22843;SDS011;11588;51.178;4.852;2023-12-20T13:41:24;15.18;;;3.45;;
22843;SDS011;11588;51.178;4.852;2023-12-20T13:43:51;18.13;;;3.17;;
22843;SDS011;11588;51.178;4.852;2023-12-20T13:46:18;16.88;;;3.67;;
22843;SDS011;11588;51.178;4.852;2023-12-20T13:48:44;21.95;;;3.55;;
22843;SDS011;11588;51.178;4.852;2023-12-20T13:51:12;17.98;;;4.13;;
22843;SDS011;11588;51.178;4.852;2023-12-20T13:53:38;19.42;;;3.53;;
22843;SDS011;11588;51.178;4.852;2023-12-20T13:56:05;19.88;;;3.47;;
22843;SDS011;11588;51.178;4.852;2023-12-20T13:58:32;14.43;;;3.25;;
22843;SDS011;11588;51.178;4.852;2023-12-20T14:00:59;13.45;;;3.42;;
22843;SDS011;11588;51.178;4.852;2023-12-20T14:03:26;20.05;;;3.20;;
22843;SDS011;11588;51.178;4.852;2023-12-20T14:05:52;13.00;;;3.10;;
22843;SDS011;11588;51.178;4.852;2023-12-20T14:08:19;16.13;;;3.28;;
22843;SDS011;11588;51.178;4.852;2023-12-20T14:10:46;15.90;;;3.22;;
22843;SDS011;11588;51.178;4.852;2023-12-20T14:13:13;14.60;;;3.38;;
22843;SDS011;11588;51.178;4.852;2023-12-20T14:15:40;16.30;;;3.78;;
22843;SDS011;11588;51.178;4.852;2023-12-20T14:18:06;19.85;;;3.40;;
22843;SDS011;11588;51.178;4.852;2023-12-20T14:20:35;17.40;;;3.15;;
22843;SDS011;11588;51.178;4.852;2023-12-20T14:23:03;17.48;;;3.25;;
22843;SDS011;11588;51.178;4.852;2023-12-20T14:25:30;13.40;;;3.85;;
22843;SDS011;11588;51.178;4.852;2023-12-20T14:27:57;15.80;;;3.20;;
22843;SDS011;11588;51.178;4.852;2023-12-20T14:30:24;15.07;;;3.42;;
22843;SDS011;11588;51.178;4.852;2023-12-20T14:32:51;21.67;;;3.42;;
22843;SDS011;11588;51.178;4.852;2023-12-20T14:35:18;17.40;;;3.05;;
22843;SDS011;11588;51.178;4.852;2023-12-20T14:37:46;15.32;;;2.90;;
22843;SDS011;11588;51.178;4.852;2023-12-20T14:40:12;10.77;;;2.85;;